Time;durP1;ratioP1;P1;durP2;ratioP2;P2;SDS_P1;SDS_P2;PMS_P1;PMS_P2;Temp;Humidity;BMP_temperature;BMP_pressure;BME280_temperature;BME280_humidity;BME280_pressure;Samples;Min_cycle;Max_cycle;Signal;HPM_P1;HPM_P2
2022/06/14 00:03:13;;;;;;;7.80;2.30;;;;;;;14.23;79.92;96805.63;5035668;28;20212;-72
2022/06/14 00:05:40;;;;;;;4.80;1.98;;;;;;;14.13;80.37;96805.13;5036620;28;20201;-72
2022/06/14 00:08:07;;;;;;;4.30;2.05;;;;;;;14.11;79.84;96815.09;5036231;28;20725;-72
2022/06/14 00:10:34;;;;;;;5.80;2.00;;;;;;;13.83;80.71;96808.75;5036188;28;20760;-73
2022/06/14 00:13:01;;;;;;;4.93;1.85;;;;;;;13.86;80.98;96807.56;5035818;28;21158;-72
2022/06/14 00:15:28;;;;;;;3.55;2.17;;;;;;;13.75;81.85;96805.41;5036298;28;20209;-72
2022/06/14 00:17:54;;;;;;;4.43;2.38;;;;;;;13.70;81.38;96803.28;5035914;28;20324;-72
2022/06/14 00:20:21;;;;;;;4.45;2.13;;;;;;;13.54;81.55;96797.34;5036127;28;20869;-72
2022/06/14 00:22:47;;;;;;;2.75;1.98;;;;;;;13.45;82.64;96799.25;5035540;28;20220;-72
2022/06/14 00:25:24;;;;;;;4.22;2.30;;;;;;;13.77;82.54;96798.06;5036634;28;20201;-72
2022/06/14 00:27:50;;;;;;;9.65;2.50;;;;;;;13.42;84.15;96802.25;5036052;28;20224;-73
2022/06/14 00:30:19;;;;;;;5.55;2.53;;;;;;;13.78;83.48;96803.19;5036299;28;20209;-72
2022/06/14 00:32:45;;;;;;;6.85;2.45;;;;;;;13.65;82.67;96799.53;5035509;28;20197;-72
2022/06/14 00:35:12;;;;;;;6.18;2.30;;;;;;;13.62;82.30;96800.72;5036583;28;20871;-72
2022/06/14 00:37:38;;;;;;;6.65;2.40;;;;;;;13.45;82.21;96791.31;5036146;28;20225;-72
2022/06/14 00:40:07;;;;;;;5.73;2.50;;;;;;;13.67;82.36;96790.41;5031951;28;20212;-72
2022/06/14 00:42:34;;;;;;;3.88;2.30;;;;;;;13.52;82.55;96789.56;5038650;28;20300;-72
2022/06/14 00:45:03;;;;;;;6.37;2.73;;;;;;;13.66;83.27;96785.31;5039724;28;20216;-73
2022/06/14 00:47:36;;;;;;;3.55;2.30;;;;;;;13.79;82.62;96791.59;5039724;28;20784;-73
2022/06/14 00:50:07;;;;;;;4.32;2.00;;;;;;;13.72;81.56;96789.84;5039918;28;20443;-72
2022/06/14 00:52:38;;;;;;;7.57;2.08;;;;;;;13.47;81.91;96791.94;5039004;28;20209;-72
2022/06/14 00:55:11;;;;;;;3.10;2.20;;;;;;;13.54;81.61;96787.59;5040071;28;20209;-72
2022/06/14 00:57:43;;;;;;;5.03;2.38;;;;;;;13.55;81.53;96786.56;5039702;28;20225;-72
2022/06/14 01:00:14;;;;;;;4.97;2.33;;;;;;;13.60;81.76;96794.78;5039624;28;20209;-72
2022/06/14 01:02:47;;;;;;;4.15;2.58;;;;;;;13.59;82.90;96790.50;5038687;28;20197;-72
2022/06/14 01:05:21;;;;;;;4.47;2.10;;;;;;;13.68;81.77;96785.94;5039853;28;21164;-73
2022/06/14 01:07:52;;;;;;;4.65;2.60;;;;;;;13.17;84.28;96791.25;5039365;28;20224;-72
2022/06/14 01:10:22;;;;;;;9.18;2.67;;;;;;;13.38;83.93;96786.09;5039260;28;20296;-72
2022/06/14 01:12:55;;;;;;;6.25;2.42;;;;;;;13.41;82.85;96782.06;5038752;28;20217;-72
2022/06/14 01:15:23;;;;;;;6.20;2.30;;;;;;;13.44;82.79;96786.19;5039639;28;20216;-72
2022/06/14 01:17:58;;;;;;;2.97;2.17;;;;;;;13.38;83.50;96781.63;5038784;28;20236;-72
2022/06/14 01:20:25;;;;;;;6.30;2.47;;;;;;;13.09;84.35;96781.56;5039340;28;20988;-72
2022/06/14 01:22:54;;;;;;;4.35;2.60;;;;;;;13.37;84.69;96777.34;5038390;28;20205;-73
2022/06/14 01:25:21;;;;;;;5.07;2.72;;;;;;;13.21;83.20;96776.66;5039169;28;20205;-72
2022/06/14 01:27:48;;;;;;;7.35;2.40;;;;;;;13.25;83.51;96780.59;5039036;28;20217;-72
2022/06/14 01:30:20;;;;;;;4.97;2.60;;;;;;;13.36;82.98;96774.88;5038971;28;20205;-72
2022/06/14 01:32:52;;;;;;;3.53;2.20;;;;;;;13.41;81.55;96779.41;5038616;28;20212;-72
2022/06/14 01:35:23;;;;;;;5.53;2.70;;;;;;;13.34;82.78;96769.75;5038750;28;20216;-72
2022/06/14 01:37:54;;;;;;;9.27;2.30;;;;;;;13.35;83.02;96773.22;5039216;28;20225;-72
2022/06/14 01:40:31;;;;;;;3.70;2.55;;;;;;;13.36;83.17;96774.88;5035226;28;20216;-72
2022/06/14 01:43:18;;;;;;;7.23;3.00;;;;;;;13.42;83.52;96767.03;5037744;28;20204;-72
2022/06/14 01:45:55;;;;;;;4.80;2.28;;;;;;;13.29;81.75;96766.00;5038804;28;20208;-72
2022/06/14 01:48:30;;;;;;;7.10;2.50;;;;;;;13.12;82.35;96759.22;5039867;28;20225;-72
2022/06/14 01:54:01;;;;;;;6.65;2.70;;;;;;;13.38;82.86;96759.59;5036095;28;20248;-72
2022/06/14 01:56:42;;;;;;;4.00;2.22;;;;;;;13.33;81.60;96756.69;5038888;28;20691;-72
2022/06/14 01:59:21;;;;;;;4.95;2.40;;;;;;;13.24;82.04;96765.69;5038862;28;20243;-72
2022/06/14 02:01:58;;;;;;;7.57;2.90;;;;;;;13.13;82.36;96766.16;5038151;28;20197;-72
2022/06/14 02:04:38;;;;;;;4.57;2.60;;;;;;;13.24;83.56;96774.47;5037324;28;20201;-72
2022/06/14 02:07:12;;;;;;;5.20;2.78;;;;;;;13.31;84.56;96766.66;5038597;28;20208;-72
2022/06/14 02:09:51;;;;;;;5.57;2.60;;;;;;;13.36;83.52;96762.44;5038275;28;20201;-72
2022/06/14 02:12:23;;;;;;;7.50;2.45;;;;;;;13.15;83.61;96758.84;5037590;28;20575;-73
2022/06/14 02:14:56;;;;;;;6.82;2.97;;;;;;;13.25;83.71;96765.56;5038041;28;20197;-72
2022/06/14 02:17:26;;;;;;;5.75;2.63;;;;;;;13.27;84.81;96768.00;5037664;28;21363;-72
2022/06/14 02:19:59;;;;;;;7.75;2.45;;;;;;;13.38;84.51;96774.50;5038186;28;21317;-72
2022/06/14 02:22:31;;;;;;;5.47;2.60;;;;;;;13.27;84.02;96776.75;5036961;28;20267;-72
2022/06/14 02:25:05;;;;;;;6.38;2.72;;;;;;;13.32;84.65;96773.59;5037554;28;20209;-72
2022/06/14 02:27:36;;;;;;;4.13;2.45;;;;;;;13.29;84.52;96766.81;5038060;28;20231;-72
2022/06/14 02:30:06;;;;;;;4.57;2.85;;;;;;;13.24;83.79;96769.19;5038094;28;20216;-72
2022/06/14 02:32:41;;;;;;;6.05;2.47;;;;;;;13.06;83.55;96768.69;5037265;28;20205;-72
2022/06/14 02:35:13;;;;;;;6.90;2.77;;;;;;;12.62;85.23;96774.81;5037930;28;20208;-72
2022/06/14 02:37:46;;;;;;;4.37;2.57;;;;;;;12.79;84.83;96766.59;5037563;28;20221;-72
2022/06/14 02:40:19;;;;;;;6.20;2.75;;;;;;;12.89;84.35;96758.44;5033548;28;20702;-72
2022/06/14 02:42:55;;;;;;;5.67;2.63;;;;;;;12.81;84.99;96769.88;5037039;28;20205;-72
2022/06/14 02:45:25;;;;;;;5.82;2.50;;;;;;;12.82;84.36;96768.06;5037706;28;20575;-72
2022/06/14 02:47:57;;;;;;;3.70;2.47;;;;;;;12.87;84.00;96763.09;5037532;28;20915;-72
2022/06/14 02:50:30;;;;;;;7.80;3.17;;;;;;;12.89;85.90;96763.72;5038111;28;20217;-72
2022/06/14 02:53:02;;;;;;;5.13;2.92;;;;;;;12.90;84.75;96757.44;5036219;28;21051;-72
2022/06/14 02:55:36;;;;;;;7.93;2.88;;;;;;;12.85;84.50;96757.13;5037087;28;20197;-72
2022/06/14 02:58:08;;;;;;;6.67;2.70;;;;;;;12.73;83.45;96755.06;5038011;28;20314;-71
2022/06/14 03:00:40;;;;;;;5.00;2.90;;;;;;;12.90;84.59;96754.78;5037676;28;20236;-73
2022/06/14 03:03:13;;;;;;;5.50;2.87;;;;;;;12.93;84.95;96749.13;5035995;28;20205;-72
2022/06/14 03:05:46;;;;;;;5.30;2.70;;;;;;;12.80;84.48;96755.03;5037224;28;20902;-72
2022/06/14 03:08:18;;;;;;;6.63;3.10;;;;;;;12.67;85.22;96755.78;5037936;28;20229;-71
2022/06/14 03:10:57;;;;;;;7.07;3.17;;;;;;;12.73;84.43;96755.91;5036954;28;20209;-72
2022/06/14 03:13:33;;;;;;;5.20;3.20;;;;;;;12.37;85.05;96756.66;5036102;28;20209;-72
2022/06/14 03:16:11;;;;;;;8.10;2.97;;;;;;;12.49;84.04;96761.38;5037905;28;20213;-72
2022/06/14 03:18:46;;;;;;;4.93;2.70;;;;;;;12.39;85.66;96752.84;5036053;28;20232;-71
2022/06/14 03:21:19;;;;;;;7.05;3.13;;;;;;;12.67;86.37;96764.53;5037485;28;20201;-72
2022/06/14 03:23:51;;;;;;;5.07;2.90;;;;;;;12.15;86.91;96767.22;5036006;28;20205;-71
2022/06/14 03:26:26;;;;;;;5.10;2.90;;;;;;;12.35;87.07;96767.41;5037243;28;20296;-72
2022/06/14 03:28:57;;;;;;;8.80;3.00;;;;;;;11.97;88.38;96764.00;5037030;28;20223;-72
2022/06/14 03:31:33;;;;;;;4.97;2.83;;;;;;;12.03;87.62;96768.56;5037704;28;20201;-72
2022/06/14 03:34:08;;;;;;;4.67;2.87;;;;;;;11.92;88.10;96772.44;5035895;28;20216;-72
2022/06/14 03:36:35;;;;;;;6.83;2.63;;;;;;;12.08;86.90;96768.88;5036928;28;20554;-71
2022/06/14 03:39:06;;;;;;;5.73;3.00;;;;;;;12.29;86.36;96768.09;5033795;28;20229;-72
2022/06/14 03:41:36;;;;;;;9.67;3.47;;;;;;;12.44;86.65;96773.47;5037131;28;20209;-72
2022/06/14 03:44:04;;;;;;;6.27;3.20;;;;;;;12.47;86.03;96767.81;5035926;28;20856;-72
2022/06/14 03:46:34;;;;;;;7.20;2.73;;;;;;;12.42;85.52;96765.72;5036880;28;20216;-72
2022/06/14 03:49:04;;;;;;;10.97;2.73;;;;;;;12.56;85.67;96764.94;5036996;28;20223;-72
2022/06/14 03:51:42;;;;;;;5.87;3.20;;;;;;;12.65;86.39;96766.53;5036623;28;20212;-72
2022/06/14 03:54:21;;;;;;;9.77;3.30;;;;;;;12.76;87.14;96766.13;5036266;28;20209;-72
2022/06/14 03:57:10;;;;;;;5.83;3.53;;;;;;;12.73;86.92;96768.28;5036936;28;20208;-72
2022/06/14 04:00:01;;;;;;;9.00;3.50;;;;;;;12.67;86.58;96769.00;5036341;28;20225;-72
2022/06/14 04:02:56;;;;;;;7.80;3.25;;;;;;;12.69;86.87;96765.19;5035871;28;20209;-71
2022/06/14 04:05:36;;;;;;;6.67;2.90;;;;;;;12.62;86.12;96771.34;5036096;28;20907;-72
2022/06/14 04:08:14;;;;;;;5.47;2.80;;;;;;;12.73;85.94;96776.22;5036590;28;20217;-71
2022/06/14 04:10:46;;;;;;;8.73;3.37;;;;;;;12.55;87.50;96779.19;5037605;28;20287;-72
2022/06/14 04:13:28;;;;;;;9.37;3.50;;;;;;;12.72;87.71;96783.34;5035322;28;20208;-72
2022/06/14 04:15:59;;;;;;;6.30;3.47;;;;;;;12.59;89.42;96779.63;5036449;28;20207;-72
2022/06/14 04:18:39;;;;;;;9.13;3.90;;;;;;;12.65;89.76;96769.16;5041177;28;20221;-72
2022/06/14 04:21:13;;;;;;;6.57;3.30;;;;;;;12.65;91.24;96777.09;5040700;28;20732;-71
2022/06/14 04:23:47;;;;;;;6.30;3.50;;;;;;;13.10;89.73;96774.47;5039106;28;20919;-72
2022/06/14 04:26:23;;;;;;;7.40;3.20;;;;;;;13.09;89.86;96775.47;5040583;28;20204;-72
2022/06/14 04:28:58;;;;;;;6.70;3.40;;;;;;;13.00;90.67;96773.91;5040108;28;20232;-72
2022/06/14 04:31:30;;;;;;;6.97;3.45;;;;;;;13.15;92.08;96762.34;5039939;28;20206;-71
2022/06/14 04:34:07;;;;;;;5.80;3.25;;;;;;;13.49;90.62;96771.41;5039716;28;20205;-72
2022/06/14 04:36:37;;;;;;;7.97;3.78;;;;;;;13.70;89.86;96768.84;5040241;28;20209;-71
2022/06/14 04:39:08;;;;;;;6.60;3.72;;;;;;;13.78;89.53;96771.41;5038078;28;20217;-71
2022/06/14 04:41:42;;;;;;;9.73;3.90;;;;;;;13.98;88.94;96762.69;5040529;28;20209;-71
2022/06/14 04:44:15;;;;;;;15.35;4.18;;;;;;;14.11;88.16;96764.72;5039074;28;20213;-71
2022/06/14 04:46:46;;;;;;;7.90;3.63;;;;;;;14.13;89.07;96760.06;5039658;28;20287;-72
2022/06/14 04:49:17;;;;;;;9.52;3.80;;;;;;;14.33;89.22;96761.09;5039259;28;20237;-72
2022/06/14 04:51:48;;;;;;;11.30;4.47;;;;;;;14.43;89.12;96756.31;5040113;28;20201;-72
2022/06/14 04:54:20;;;;;;;11.05;3.90;;;;;;;14.52;87.73;96765.81;5038784;28;20586;-72
2022/06/14 04:56:52;;;;;;;9.13;4.10;;;;;;;14.59;86.99;96758.72;5039691;28;20669;-72
2022/06/14 04:59:24;;;;;;;6.53;3.70;;;;;;;14.74;87.09;96758.50;5039741;28;20295;-72
2022/06/14 05:01:54;;;;;;;7.07;4.22;;;;;;;14.83;84.82;96757.34;5039711;28;20212;-72
2022/06/14 05:04:25;;;;;;;8.52;4.30;;;;;;;14.90;84.73;96758.22;5038785;28;20209;-72
2022/06/14 05:06:57;;;;;;;9.90;4.40;;;;;;;15.09;84.46;96757.56;5039681;28;20220;-72
2022/06/14 05:09:29;;;;;;;10.18;4.05;;;;;;;15.33;83.70;96755.34;5039695;28;20250;-72
2022/06/14 05:12:03;;;;;;;11.88;4.43;;;;;;;15.28;84.98;96751.63;5039302;28;20883;-72
2022/06/14 05:14:36;;;;;;;10.52;4.88;;;;;;;15.26;85.11;96754.47;5038517;28;20752;-72
2022/06/14 05:17:07;;;;;;;20.92;4.63;;;;;;;15.50;84.59;96755.88;5039122;28;20220;-72
2022/06/14 05:19:41;;;;;;;6.47;4.10;;;;;;;15.73;84.22;96765.19;5039025;28;20221;-72
2022/06/14 05:22:13;;;;;;;10.43;4.82;;;;;;;15.77;85.30;96763.81;5039728;28;20205;-72
2022/06/14 05:24:40;;;;;;;9.55;4.22;;;;;;;15.78;84.28;96754.00;5038577;28;20205;-72
2022/06/14 05:27:27;;;;;;;10.40;4.22;;;;;;;16.00;82.95;96759.03;5039266;28;21180;-72
2022/06/14 05:30:03;;;;;;;13.27;3.97;;;;;;;16.06;83.35;96766.19;5039671;28;20209;-72
2022/06/14 05:32:36;;;;;;;9.82;4.22;;;;;;;16.04;85.02;96766.41;5038234;28;20209;-72
2022/06/14 05:35:16;;;;;;;9.52;4.40;;;;;;;16.24;83.29;96777.94;5039219;28;20665;-72
2022/06/14 05:37:50;;;;;;;11.27;3.80;;;;;;;16.62;82.52;96771.13;5039210;28;20603;-72
2022/06/14 05:40:25;;;;;;;7.38;3.28;;;;;;;17.08;80.88;96762.19;5035717;28;20279;-71
2022/06/14 05:42:57;;;;;;;8.38;3.50;;;;;;;17.41;79.56;96774.53;5038054;28;20220;-71
2022/06/14 05:45:26;;;;;;;13.10;4.30;;;;;;;17.79;77.13;96772.81;5039093;28;20216;-72
2022/06/14 05:47:57;;;;;;;7.63;3.95;;;;;;;17.93;74.55;96769.09;5038603;28;20337;-72
2022/06/14 05:50:27;;;;;;;5.72;3.47;;;;;;;18.10;74.53;96776.44;5038770;28;20204;-72
2022/06/14 05:52:59;;;;;;;7.47;4.03;;;;;;;18.23;73.45;96778.25;5038857;28;20216;-71
2022/06/14 05:55:33;;;;;;;6.15;3.42;;;;;;;18.34;73.58;96781.94;5038778;28;20773;-71
2022/06/14 05:58:07;;;;;;;9.55;3.80;;;;;;;18.62;71.68;96777.06;5037779;28;20224;-71
2022/06/14 06:00:43;;;;;;;8.70;3.78;;;;;;;18.46;70.60;96776.75;5038762;28;20236;-71
2022/06/14 06:03:17;;;;;;;7.53;3.65;;;;;;;18.65;71.45;96768.63;5037947;28;20216;-72
2022/06/14 06:05:46;;;;;;;11.18;3.92;;;;;;;18.76;70.56;96775.97;5038412;28;20200;-71
2022/06/14 06:08:18;;;;;;;9.98;3.63;;;;;;;18.81;70.63;96783.34;5038567;28;20228;-71
2022/06/14 06:10:48;;;;;;;10.80;3.50;;;;;;;18.70;71.89;96774.16;5038766;28;20210;-71
2022/06/14 06:13:21;;;;;;;9.35;3.60;;;;;;;18.81;73.60;96778.00;5037943;28;20216;-71
2022/06/14 06:15:52;;;;;;;7.85;3.53;;;;;;;18.98;70.89;96774.59;5038173;28;20211;-71
2022/06/14 06:18:25;;;;;;;12.70;3.85;;;;;;;19.12;71.32;96774.31;5038328;28;20225;-73
2022/06/14 06:21:01;;;;;;;8.82;3.97;;;;;;;18.85;69.13;96769.34;5037624;28;20225;-72
2022/06/14 06:23:31;;;;;;;11.13;4.20;;;;;;;18.48;71.13;96775.50;5037330;28;20236;-73
2022/06/14 06:25:58;;;;;;;9.15;4.10;;;;;;;18.21;71.97;96772.34;5035247;28;20205;-72
2022/06/14 06:28:26;;;;;;;10.35;4.95;;;;;;;18.30;76.71;96773.72;5035920;28;20384;-72
2022/06/14 06:31:00;;;;;;;9.73;4.55;;;;;;;18.46;77.20;96766.88;5037267;28;20208;-72
2022/06/14 06:33:30;;;;;;;10.07;4.47;;;;;;;18.41;76.05;96774.69;5036082;28;20212;-72
2022/06/14 06:36:06;;;;;;;7.43;4.43;;;;;;;18.44;73.05;96776.97;5036719;28;20217;-73
2022/06/14 06:38:42;;;;;;;12.80;4.50;;;;;;;18.52;72.24;96770.53;5033547;28;20224;-72
2022/06/14 06:44:00;;;;;;;9.77;4.57;;;;;;;18.38;73.75;96780.47;5036396;28;20281;-72
2022/06/14 06:46:36;;;;;;;11.02;4.88;;;;;;;18.56;73.87;96769.91;5037260;28;20452;-73
2022/06/14 06:49:07;;;;;;;9.40;4.47;;;;;;;18.60;70.50;96768.44;5037919;28;20220;-73
2022/06/14 06:51:44;;;;;;;11.82;4.30;;;;;;;18.70;71.55;96771.47;5036993;28;20201;-72
2022/06/14 06:54:19;;;;;;;10.85;4.55;;;;;;;18.69;70.83;96772.50;5036492;28;20208;-72
2022/06/14 06:56:50;;;;;;;7.38;4.50;;;;;;;18.85;71.38;96771.19;5037601;28;20918;-73
2022/06/14 06:59:27;;;;;;;7.65;4.68;;;;;;;19.02;69.63;96767.78;5037136;28;20221;-72
2022/06/14 07:01:59;;;;;;;8.35;4.40;;;;;;;19.09;68.30;96768.56;5036996;28;20220;-72
2022/06/14 07:07:14;;;;;;;11.00;4.65;;;;;;;19.29;68.31;96770.06;5036980;28;20642;-72
2022/06/14 07:09:46;;;;;;;9.70;4.43;;;;;;;19.33;72.97;96765.13;5037327;28;20201;-72
2022/06/14 07:12:20;;;;;;;12.07;5.18;;;;;;;19.45;69.80;96768.69;5037755;28;20201;-73
2022/06/14 07:14:52;;;;;;;11.25;4.90;;;;;;;19.62;63.41;96771.41;5036299;28;20211;-72
2022/06/14 07:17:25;;;;;;;9.00;4.00;;;;;;;19.63;63.67;96772.25;5036163;28;20876;-73
2022/06/14 07:19:57;;;;;;;10.10;3.92;;;;;;;19.80;65.42;96774.13;5037428;28;20205;-73
2022/06/14 07:22:28;;;;;;;11.63;3.78;;;;;;;19.98;61.75;96774.19;5036021;28;20669;-73
2022/06/14 07:24:59;;;;;;;5.90;3.28;;;;;;;20.07;60.41;96775.50;5036861;28;20212;-72
2022/06/14 07:27:32;;;;;;;7.32;3.80;;;;;;;20.27;60.49;96774.25;5036582;28;20282;-72
2022/06/14 07:30:08;;;;;;;7.65;3.90;;;;;;;20.15;62.45;96780.59;5036327;28;20217;-72
2022/06/14 07:32:41;;;;;;;15.48;3.85;;;;;;;20.30;61.42;96775.66;5035968;28;20204;-73
2022/06/14 07:35:08;;;;;;;4.85;3.05;;;;;;;20.24;58.44;96771.22;5037180;28;20209;-72
2022/06/14 07:37:43;;;;;;;8.52;3.10;;;;;;;20.60;58.18;96763.16;5037164;28;20225;-72
2022/06/14 07:40:16;;;;;;;6.68;3.20;;;;;;;20.62;56.10;96761.88;5034282;28;20229;-73
2022/06/14 07:42:51;;;;;;;9.38;3.40;;;;;;;20.63;58.97;96760.81;5035834;28;20204;-73
2022/06/14 07:45:21;;;;;;;7.18;3.00;;;;;;;20.76;55.82;96765.22;5036979;28;20212;-73
2022/06/14 07:47:55;;;;;;;5.13;2.70;;;;;;;20.92;53.60;96757.38;5036230;28;20266;-73
2022/06/14 07:50:34;;;;;;;4.03;2.50;;;;;;;21.06;55.36;96762.28;5036137;28;20215;-73
2022/06/14 07:53:08;;;;;;;4.50;2.30;;;;;;;21.20;56.21;96758.38;5036449;28;20205;-73
2022/06/14 07:55:40;;;;;;;9.02;3.00;;;;;;;21.34;55.88;96753.63;5036528;28;20281;-73
2022/06/14 07:58:13;;;;;;;7.78;2.42;;;;;;;21.17;53.73;96755.34;5036701;28;20225;-73
2022/06/14 08:03:37;;;;;;;6.13;2.60;;;;;;;21.33;52.88;96752.00;5035372;28;20204;-73
2022/06/14 08:06:08;;;;;;;4.68;2.95;;;;;;;21.41;56.71;96749.81;5036917;28;20573;-73
2022/06/14 08:08:37;;;;;;;3.92;2.42;;;;;;;21.61;55.46;96750.28;5036598;28;20225;-73
2022/06/14 08:11:09;;;;;;;8.75;3.17;;;;;;;21.65;54.27;96752.28;5036709;28;20212;-73
2022/06/14 08:13:41;;;;;;;7.70;2.63;;;;;;;21.67;49.98;96758.22;5035866;28;20208;-73
2022/06/14 08:16:10;;;;;;;6.30;2.60;;;;;;;21.68;50.29;96751.00;5036423;28;20231;-73
2022/06/14 08:18:42;;;;;;;5.65;2.80;;;;;;;21.53;53.12;96753.34;5035804;28;20605;-73
2022/06/14 08:21:12;;;;;;;5.38;2.33;;;;;;;21.43;51.26;96750.38;5036391;28;20232;-73
2022/06/14 08:23:44;;;;;;;7.05;2.58;;;;;;;21.69;50.48;96752.63;5036199;28;20689;-73
2022/06/14 08:26:19;;;;;;;8.05;2.53;;;;;;;21.84;53.84;96751.13;5034800;28;20208;-74
2022/06/14 08:28:51;;;;;;;4.43;2.00;;;;;;;21.87;48.74;96760.56;5034163;28;20274;-73
2022/06/14 08:31:24;;;;;;;5.45;2.30;;;;;;;22.10;48.87;96756.81;5036265;28;20197;-73
2022/06/14 08:33:56;;;;;;;7.05;2.38;;;;;;;22.40;48.75;96752.13;5034818;28;20429;-73
2022/06/14 08:36:27;;;;;;;7.72;2.35;;;;;;;22.58;48.61;96749.28;5035053;28;20202;-74
2022/06/14 08:38:56;;;;;;;4.82;2.40;;;;;;;22.84;49.74;96754.88;5032431;28;20355;-73
2022/06/14 08:41:44;;;;;;;8.85;3.00;;;;;;;23.00;51.90;96753.31;5035153;28;20660;-73
2022/06/14 08:44:16;;;;;;;9.20;2.55;;;;;;;23.00;45.49;96750.63;5034982;28;20213;-73
2022/06/14 08:46:55;;;;;;;6.47;2.45;;;;;;;22.85;47.85;96750.31;5036023;28;20212;-73
2022/06/14 08:49:42;;;;;;;5.68;2.40;;;;;;;23.02;49.90;96753.88;5036417;28;20228;-73
2022/06/14 08:52:47;;;;;;;8.07;2.50;;;;;;;23.04;50.43;96754.44;5035675;28;20209;-73
2022/06/14 08:55:40;;;;;;;7.88;2.85;;;;;;;23.11;52.09;96760.50;5035770;28;20205;-73
2022/06/14 08:58:23;;;;;;;6.60;2.70;;;;;;;23.16;49.04;96749.84;5036364;28;20642;-74
2022/06/14 09:01:01;;;;;;;6.53;2.72;;;;;;;23.27;50.26;96751.63;5035745;28;20243;-74
2022/06/14 09:04:05;;;;;;;5.57;2.78;;;;;;;23.48;50.47;96749.84;5038056;28;20216;-74
2022/06/14 09:06:54;;;;;;;5.60;2.65;;;;;;;23.47;47.29;96742.88;5039945;28;20211;-73
2022/06/14 09:09:54;;;;;;;6.72;2.85;;;;;;;23.51;46.93;96744.00;5039307;28;20229;-73
2022/06/14 09:12:41;;;;;;;5.10;2.65;;;;;;;22.95;47.04;96745.94;5038829;28;20228;-73
2022/06/14 09:15:41;;;;;;;5.30;2.38;;;;;;;23.46;48.71;96743.91;5038962;28;20213;-73
2022/06/14 09:18:17;;;;;;;6.15;2.80;;;;;;;23.36;47.47;96740.25;5039068;28;20225;-73
2022/06/14 09:21:00;;;;;;;8.60;2.75;;;;;;;23.30;48.65;96735.84;5039330;28;20232;-73
2022/06/14 09:23:44;;;;;;;11.02;2.70;;;;;;;23.55;49.74;96737.06;5038709;28;20205;-73
2022/06/14 09:26:32;;;;;;;6.30;2.65;;;;;;;23.38;50.52;96738.94;5039263;28;20208;-73
2022/06/14 09:29:34;;;;;;;6.78;2.60;;;;;;;23.76;47.65;96740.91;5039092;28;20229;-74
2022/06/14 09:32:32;;;;;;;6.30;2.75;;;;;;;23.62;46.54;96726.94;5039068;28;20201;-72
2022/06/14 09:35:21;;;;;;;6.25;2.55;;;;;;;23.54;45.59;96735.44;4994548;28;20709;-73
2022/06/14 09:38:05;;;;;;;6.85;2.40;;;;;;;24.01;45.72;96729.44;5039048;28;20221;-73
2022/06/14 09:40:45;;;;;;;5.28;2.45;;;;;;;23.97;45.57;96735.59;5034951;28;20201;-74
2022/06/14 09:43:43;;;;;;;8.65;2.80;;;;;;;24.13;47.98;96734.72;5038008;28;20213;-73
2022/06/14 09:47:00;;;;;;;7.00;2.72;;;;;;;24.40;44.20;96735.63;5038980;28;20961;-73
2022/06/14 09:50:17;;;;;;;4.20;2.67;;;;;;;24.47;43.88;96741.66;4999985;28;20255;-73
2022/06/14 09:53:08;;;;;;;5.88;2.72;;;;;;;24.55;42.16;96730.44;5037961;28;20194;-73
2022/06/14 09:55:57;;;;;;;5.45;2.50;;;;;;;24.25;42.91;96738.09;5038369;28;20201;-73
2022/06/14 09:58:45;;;;;;;5.43;2.53;;;;;;;24.26;43.70;96732.50;5038598;28;20225;-73
2022/06/14 10:01:19;;;;;;;6.55;2.42;;;;;;;23.99;42.47;96733.44;5038678;28;20255;-73
2022/06/14 10:04:31;;;;;;;5.40;2.00;;;;;;;24.34;40.74;96733.94;5038095;28;20200;-73
2022/06/14 10:07:21;;;;;;;10.23;2.60;;;;;;;24.46;46.79;96726.56;5038272;28;20216;-73
2022/06/14 10:10:13;;;;;;;7.25;2.83;;;;;;;24.98;43.28;96715.81;5038357;28;20210;-73
2022/06/14 10:13:32;;;;;;;5.97;2.80;;;;;;;24.79;43.33;96714.53;5030617;28;20216;-73
2022/06/14 10:16:10;;;;;;;6.93;2.25;;;;;;;24.74;43.94;96711.78;5011966;28;20213;-74
2022/06/14 10:19:07;;;;;;;8.38;2.30;;;;;;;24.67;39.87;96705.78;5038345;28;20235;-74
2022/06/14 10:21:40;;;;;;;6.93;1.90;;;;;;;24.90;41.91;96702.81;5038374;28;20228;-73
2022/06/14 10:24:18;;;;;;;2.78;1.90;;;;;;;25.07;38.98;96690.03;5037060;28;20201;-74
2022/06/14 10:30:00;;;;;;;4.25;1.70;;;;;;;25.39;35.99;96689.00;5038182;28;20562;-73
2022/06/14 10:32:56;;;;;;;3.30;1.88;;;;;;;25.46;34.45;96694.97;5037023;28;20425;-73
2022/06/14 10:35:32;;;;;;;9.77;2.60;;;;;;;25.12;36.32;96698.19;5038332;28;20204;-73
2022/06/14 10:38:28;;;;;;;4.07;2.28;;;;;;;25.31;41.64;96686.75;5037185;28;20228;-73
2022/06/14 10:40:59;;;;;;;8.10;2.47;;;;;;;25.17;47.29;96683.94;5037707;28;20209;-73
2022/06/14 10:43:33;;;;;;;5.80;2.30;;;;;;;25.42;42.43;96676.84;5036875;28;20576;-73
2022/06/14 10:46:07;;;;;;;8.10;2.85;;;;;;;25.79;42.64;96683.06;5037282;28;20208;-73
2022/06/14 10:48:55;;;;;;;7.07;2.78;;;;;;;25.32;42.19;96682.19;5037742;28;20229;-74
2022/06/14 10:51:44;;;;;;;6.50;2.72;;;;;;;25.50;41.27;96674.50;5037675;28;20576;-74
2022/06/14 10:54:21;;;;;;;7.32;2.67;;;;;;;25.79;43.65;96672.28;5037129;28;20205;-74
2022/06/14 10:57:03;;;;;;;5.72;2.75;;;;;;;26.08;40.89;96677.88;5036955;28;20216;-74
2022/06/14 10:59:43;;;;;;;5.85;2.72;;;;;;;25.35;40.73;96678.97;5037527;28;20227;-73
2022/06/14 11:02:22;;;;;;;4.63;2.40;;;;;;;25.57;39.36;96667.00;5037487;28;20229;-73
2022/06/14 11:04:55;;;;;;;5.40;2.50;;;;;;;25.45;41.39;96670.94;5037308;28;20208;-73
2022/06/14 11:08:02;;;;;;;7.38;2.40;;;;;;;25.77;44.62;96669.03;5037657;28;20205;-75
2022/06/14 11:10:42;;;;;;;6.10;2.30;;;;;;;26.09;42.60;96671.34;5023632;28;20213;-74
2022/06/14 11:13:20;;;;;;;8.80;2.40;;;;;;;26.16;40.10;96673.84;5036224;28;20197;-73
2022/06/14 11:15:51;;;;;;;6.65;2.53;;;;;;;26.03;40.27;96667.03;5037686;28;20212;-74
2022/06/14 11:18:48;;;;;;;6.10;2.50;;;;;;;25.94;40.85;96676.72;5037499;28;21010;-74
2022/06/14 11:21:30;;;;;;;4.57;2.50;;;;;;;25.94;42.57;96665.91;5036731;28;20228;-75
2022/06/14 11:24:04;;;;;;;6.50;2.60;;;;;;;26.45;40.45;96668.59;5036279;28;20986;-74
2022/06/14 11:26:40;;;;;;;7.95;2.67;;;;;;;25.90;41.19;96658.56;5037254;28;20212;-74
2022/06/14 11:29:13;;;;;;;4.25;2.78;;;;;;;26.09;40.42;96663.25;5036565;28;20662;-73
2022/06/14 11:31:45;;;;;;;7.95;2.72;;;;;;;26.20;39.10;96656.84;5037621;28;20212;-73
2022/06/14 11:34:36;;;;;;;7.28;2.80;;;;;;;26.07;40.47;96654.63;5036348;28;20205;-74
2022/06/14 11:37:20;;;;;;;6.55;2.70;;;;;;;26.41;40.28;96646.94;5036555;28;20211;-75
2022/06/14 11:39:53;;;;;;;8.82;2.60;;;;;;;26.85;37.77;96643.53;5033429;28;20575;-75
2022/06/14 11:42:24;;;;;;;4.13;2.35;;;;;;;26.22;39.42;96643.06;5035760;28;20224;-75
2022/06/14 11:45:10;;;;;;;4.82;2.30;;;;;;;26.31;38.65;96639.59;5036707;28;20216;-74
2022/06/14 11:47:43;;;;;;;4.13;2.40;;;;;;;26.12;39.26;96627.63;5036786;28;20252;-74
2022/06/14 11:50:18;;;;;;;5.68;2.55;;;;;;;26.16;41.38;96641.44;5036580;28;20205;-75
2022/06/14 11:53:03;;;;;;;8.45;2.97;;;;;;;26.11;39.70;96636.81;5035559;28;20685;-73
2022/06/14 11:55:34;;;;;;;5.25;2.53;;;;;;;26.51;42.22;96631.56;5036692;28;20203;-74
2022/06/14 11:58:12;;;;;;;5.43;2.60;;;;;;;27.13;41.14;96628.44;5036505;28;20225;-74
2022/06/14 12:00:56;;;;;;;4.05;2.65;;;;;;;27.28;40.09;96625.72;5036501;28;20323;-74
2022/06/14 12:03:45;;;;;;;9.27;2.47;;;;;;;27.00;38.85;96635.44;5035860;28;20239;-74
2022/06/14 12:06:27;;;;;;;4.97;2.53;;;;;;;27.45;38.09;96634.38;5036203;28;20205;-75
2022/06/14 12:09:28;;;;;;;5.57;2.75;;;;;;;27.34;42.72;96632.78;5036033;28;21273;-74
2022/06/14 12:11:56;;;;;;;5.50;2.20;;;;;;;27.35;38.51;96631.66;5036001;28;20212;-74
2022/06/14 12:14:59;;;;;;;5.88;2.65;;;;;;;27.85;38.53;96632.44;5034948;28;20209;-74
2022/06/14 12:17:30;;;;;;;6.18;2.70;;;;;;;28.08;38.42;96631.00;5035808;28;20259;-74
2022/06/14 12:20:05;;;;;;;8.80;2.65;;;;;;;27.57;36.10;96634.94;5036886;28;20201;-73
2022/06/14 12:22:39;;;;;;;4.15;2.38;;;;;;;28.10;35.15;96623.41;5034879;28;21091;-74
2022/06/14 12:27:59;;;;;;;6.90;2.78;;;;;;;28.27;36.94;96630.13;5036866;28;20228;-74
2022/06/14 12:30:28;;;;;;;6.90;2.75;;;;;;;27.57;40.25;96628.69;5036517;28;20208;-73
2022/06/14 12:33:02;;;;;;;5.10;2.30;;;;;;;28.68;37.17;96621.53;5035527;28;20209;-74